Weather at Double Eagle II Airport

Public forecast

Using degrees Fahrenheit for public forecast. Weather courtesy of forecast.io.

Current aviation weather report (METAR) for Double Eagle II Airport

Retrieved 2020/09/22 15:50 UTC (55 minutes ago):

KAEG 221550Z 04005KT 10SM CLR 20/03 A3030

Aviation forecast (TAF) for Double Eagle II Airport

Retrieved 2020/09/22 12:22 UTC (4 hours ago):

TAF KAEG 221120Z 2212/2312 VRB05KT P6SM FEW120 FM221900 29008KT P6SM SCT120 FM222200 29012KT P6SM BKN100 FM230300 32008KT P6SM BKN100